createdAt,value
2019-01-25T00:03:18.904Z,100931.20
2019-01-25T00:08:24.279Z,100932.31
2019-01-25T00:13:29.619Z,100939.53
2019-01-25T00:18:34.943Z,100924.87
2019-01-25T00:23:40.270Z,100921.52
2019-01-25T00:28:45.662Z,100935.72
2019-01-25T00:33:51.025Z,100923.62
2019-01-25T00:38:56.392Z,100929.74
2019-01-25T00:44:01.731Z,100927.98
2019-01-25T00:49:07.079Z,100932.84
2019-01-25T00:54:12.398Z,100933.98
2019-01-25T00:59:17.712Z,100925.77
2019-01-25T01:04:23.080Z,100922.70
2019-01-25T01:09:28.434Z,100928.88
2019-01-25T01:14:33.819Z,100917.29
2019-01-25T01:19:39.183Z,100918.63
2019-01-25T01:24:44.569Z,100919.07
2019-01-25T01:29:49.920Z,100929.50
2019-01-25T01:34:55.345Z,100935.36
2019-01-25T01:40:00.654Z,100940.07
2019-01-25T01:45:06.343Z,100942.98
2019-01-25T01:50:13.992Z,100944.31
2019-01-25T01:55:19.321Z,100946.22
2019-01-25T02:00:28.219Z,100946.72
2019-01-25T02:05:33.575Z,100952.20
2019-01-25T02:10:38.915Z,100942.08
2019-01-25T02:15:44.242Z,100948.72
2019-01-25T02:20:49.647Z,100942.48
2019-01-25T02:25:55.504Z,100946.21
2019-01-25T02:31:01.131Z,100943.09
2019-01-25T02:36:06.736Z,100945.30
2019-01-25T02:41:12.288Z,100950.88
2019-01-25T02:46:17.822Z,100948.11
2019-01-25T02:51:23.399Z,100949.52
2019-01-25T02:56:28.934Z,100943.47
2019-01-25T03:01:34.321Z,100942.90
2019-01-25T03:06:39.733Z,100942.65
2019-01-25T03:11:45.086Z,100939.59
2019-01-25T03:16:50.393Z,100944.08
2019-01-25T03:21:55.737Z,100940.73
2019-01-25T03:27:01.061Z,100946.65
2019-01-25T03:32:06.425Z,100947.06
2019-01-25T03:37:11.755Z,100949.52
2019-01-25T03:42:17.061Z,100951.06
2019-01-25T03:47:22.374Z,100949.58
2019-01-25T03:52:27.685Z,100949.02
2019-01-25T03:57:33.048Z,100950.13
2019-01-25T04:02:38.401Z,100947.15
2019-01-25T04:07:43.753Z,100953.61
2019-01-25T04:12:49.146Z,100954.91
2019-01-25T04:17:54.562Z,100957.03
2019-01-25T04:22:59.886Z,100962.22
2019-01-25T04:28:05.270Z,100958.98
2019-01-25T04:33:10.612Z,100962.15
2019-01-25T04:38:15.941Z,100960.22
2019-01-25T04:43:21.296Z,100960.16
2019-01-25T04:48:26.709Z,100956.20
2019-01-25T04:53:33.414Z,100949.37
2019-01-25T04:58:38.743Z,100943.30
2019-01-25T05:03:44.791Z,100945.94
2019-01-25T05:08:50.135Z,100946.83
2019-01-25T05:13:55.454Z,100954.27
2019-01-25T05:19:00.751Z,100950.99
2019-01-25T05:24:12.448Z,100952.22
2019-01-25T05:29:19.429Z,100948.84
2019-01-25T05:34:24.821Z,100955.16
2019-01-25T05:39:30.120Z,100961.84
2019-01-25T05:44:35.472Z,100970.09
2019-01-25T05:49:40.797Z,100964.60
2019-01-25T05:54:46.112Z,100976.86
2019-01-25T05:59:51.483Z,100983.86
2019-01-25T06:04:57.145Z,100993.45
2019-01-25T06:10:02.540Z,101004.38
2019-01-25T06:15:08.350Z,101009.88
2019-01-25T06:20:13.809Z,101011.97
2019-01-25T06:25:19.140Z,101011.09
2019-01-25T06:30:24.467Z,101011.91
2019-01-25T06:35:29.817Z,101009.44
2019-01-25T06:40:35.293Z,101014.53
2019-01-25T06:45:40.724Z,101016.18
2019-01-25T06:50:46.030Z,101020.02
2019-01-25T06:55:51.414Z,101018.02
2019-01-25T07:01:13.316Z,101017.27
2019-01-25T07:06:18.885Z,101015.28
2019-01-25T07:11:24.265Z,101011.09
2019-01-25T07:16:29.640Z,101010.37
2019-01-25T07:21:34.984Z,101006.52
2019-01-25T07:26:40.325Z,101010.13
2019-01-25T07:31:46.393Z,101021.42
2019-01-25T07:36:52.116Z,101027.03
2019-01-25T07:41:59.613Z,101032.56
2019-01-25T07:47:04.756Z,101038.02
2019-01-25T07:52:10.165Z,101032.06
2019-01-25T07:57:15.593Z,101035.07
2019-01-25T08:02:20.946Z,101032.82
2019-01-25T08:07:26.387Z,101033.92
2019-01-25T08:12:31.982Z,101033.77
2019-01-25T08:17:37.333Z,101034.27
2019-01-25T08:22:42.911Z,101036.60
2019-01-25T08:27:48.833Z,101033.34
2019-01-25T08:32:54.342Z,101037.66
2019-01-25T08:37:59.721Z,101039.70
2019-01-25T08:43:05.089Z,101047.91
2019-01-25T08:48:10.575Z,101051.63
2019-01-25T08:53:15.962Z,101051.66
2019-01-25T08:58:21.317Z,101056.75
2019-01-25T09:03:26.663Z,101047.63
2019-01-25T09:08:32.013Z,101048.40
2019-01-25T09:13:37.424Z,101049.27
2019-01-25T09:18:42.740Z,101051.70
2019-01-25T09:23:48.080Z,101051.83
2019-01-25T09:28:53.448Z,101053.78
2019-01-25T09:33:58.798Z,101050.34
2019-01-25T09:39:05.764Z,101045.29
2019-01-25T09:44:11.140Z,101050.66
2019-01-25T09:49:16.563Z,101064.36
2019-01-25T09:54:21.875Z,101073.38
2019-01-25T09:59:27.312Z,101073.66
2019-01-25T10:04:32.778Z,101081.77
2019-01-25T10:09:38.117Z,101079.58
2019-01-25T10:14:43.465Z,101071.59
2019-01-25T10:19:50.585Z,101074.66
2019-01-25T10:24:55.891Z,101047.44
2019-01-25T10:30:01.291Z,101053.89
2019-01-25T10:35:08.451Z,101041.53
2019-01-25T10:40:16.674Z,101037.45
2019-01-25T10:45:34.195Z,101036.14
2019-01-25T10:50:39.525Z,101034.44
2019-01-25T10:55:44.942Z,101026.27
2019-01-25T11:00:51.339Z,101019.94
2019-01-25T11:05:56.867Z,101008.47
2019-01-25T11:11:02.425Z,101004.81
2019-01-25T11:16:11.972Z,101008.30
2019-01-25T11:21:15.126Z,100992.91
2019-01-25T11:26:20.424Z,100995.05
2019-01-25T11:31:25.774Z,100995.45
2019-01-25T11:36:31.115Z,100983.15
2019-01-25T11:41:36.465Z,100969.77
2019-01-25T11:46:41.802Z,100968.52
2019-01-25T11:51:47.277Z,100951.08
2019-01-25T11:56:52.676Z,100949.52
2019-01-25T12:01:58.048Z,100947.66
2019-01-25T12:07:03.435Z,100933.83
2019-01-25T12:12:08.766Z,100928.56
2019-01-25T12:17:14.162Z,100925.89
2019-01-25T12:22:19.800Z,100926.86
2019-01-25T12:27:25.227Z,100940.66
2019-01-25T12:32:30.601Z,100941.48
2019-01-25T12:37:35.889Z,100942.70
2019-01-25T12:42:41.189Z,100946.86
2019-01-25T12:47:46.521Z,100945.95
2019-01-25T12:52:51.921Z,100938.95
2019-01-25T12:57:57.241Z,100937.30
2019-01-25T13:03:02.600Z,100919.82
2019-01-25T13:08:07.968Z,100902.13
2019-01-25T13:13:13.356Z,100898.73
2019-01-25T13:18:18.756Z,100902.05
2019-01-25T13:23:24.433Z,100903.58
2019-01-25T13:28:29.841Z,100909.20
2019-01-25T13:33:35.267Z,100904.82
2019-01-25T13:38:41.106Z,100893.44
2019-01-25T13:43:46.445Z,100903.58
2019-01-25T13:48:51.767Z,100901.17
2019-01-25T13:53:57.116Z,100902.44
2019-01-25T13:59:02.718Z,100894.67
2019-01-25T14:04:08.060Z,100883.98
2019-01-25T14:09:13.391Z,100881.10
2019-01-25T14:14:18.722Z,100874.44
2019-01-25T14:19:24.198Z,100863.50
2019-01-25T14:24:29.624Z,100860.62
2019-01-25T14:29:35.016Z,100854.16
2019-01-25T14:34:40.372Z,100842.34
2019-01-25T14:39:45.809Z,100829.03
2019-01-25T14:44:51.213Z,100823.56
2019-01-25T14:49:56.592Z,100812.65
2019-01-25T14:55:01.929Z,100808.83
2019-01-25T15:00:07.896Z,100812.87
2019-01-25T15:05:16.123Z,100798.90
2019-01-25T15:10:23.968Z,100800.84
2019-01-25T15:15:29.304Z,100805.45
2019-01-25T15:20:34.609Z,100810.89
2019-01-25T15:25:39.941Z,100818.34
2019-01-25T15:30:45.395Z,100823.63
2019-01-25T15:35:50.695Z,100830.23
2019-01-25T15:40:55.990Z,100842.52
2019-01-25T15:46:01.299Z,100841.83
2019-01-25T15:51:06.717Z,100833.80
2019-01-25T15:56:12.134Z,100821.08
2019-01-25T16:01:17.737Z,100825.38
2019-01-25T16:06:23.072Z,100825.28
2019-01-25T16:11:29.135Z,100821.56
2019-01-25T16:16:34.492Z,100816.03
2019-01-25T16:21:39.801Z,100813.08
2019-01-25T16:26:45.738Z,100812.31
2019-01-25T16:31:51.180Z,100815.52
2019-01-25T16:36:57.133Z,100812.55
2019-01-25T16:42:02.662Z,100821.84
2019-01-25T16:47:08.118Z,100835.80
2019-01-25T16:52:14.024Z,100824.70
2019-01-25T16:57:19.462Z,100813.72
2019-01-25T17:02:25.063Z,100799.14
2019-01-25T17:07:30.415Z,100781.36
2019-01-25T17:12:35.723Z,100781.62
2019-01-25T17:17:41.075Z,100779.19
2019-01-25T17:22:46.384Z,100777.69
2019-01-25T17:27:51.717Z,100769.86
2019-01-25T17:32:58.976Z,100747.78
2019-01-25T17:38:05.537Z,100758.34
2019-01-25T17:43:10.875Z,100757.06
2019-01-25T17:48:16.166Z,100741.73
2019-01-25T17:53:21.571Z,100736.69
2019-01-25T17:58:26.899Z,100731.91
2019-01-25T18:03:33.110Z,100724.76
2019-01-25T18:08:38.608Z,100717.77
2019-01-25T18:13:44.477Z,100711.70
2019-01-25T18:18:49.966Z,100707.87
2019-01-25T18:23:55.296Z,100710.23
2019-01-25T18:29:12.298Z,100705.25
2019-01-25T18:34:17.797Z,100698.91
2019-01-25T18:39:23.431Z,100700.64
2019-01-25T18:44:28.863Z,100690.91
2019-01-25T18:49:34.221Z,100697.42
2019-01-25T18:54:39.571Z,100699.50
2019-01-25T18:59:44.940Z,100688.20
2019-01-25T19:04:50.296Z,100695.46
2019-01-25T19:09:55.611Z,100687.26
2019-01-25T19:15:04.557Z,100687.09
2019-01-25T19:20:10.951Z,100688.75
2019-01-25T19:25:16.336Z,100664.44
2019-01-25T19:30:34.553Z,100661.20
2019-01-25T19:35:39.869Z,100656.70
2019-01-25T19:40:45.264Z,100642.39
2019-01-25T19:45:50.589Z,100639.00
2019-01-25T19:50:55.947Z,100632.05
2019-01-25T19:56:01.311Z,100639.63
2019-01-25T20:01:06.773Z,100630.84
2019-01-25T20:06:12.102Z,100631.95
2019-01-25T20:11:17.454Z,100629.89
2019-01-25T20:16:22.835Z,100625.70
2019-01-25T20:21:28.159Z,100622.69
2019-01-25T20:26:33.568Z,100627.30
2019-01-25T20:31:38.870Z,100628.56
2019-01-25T20:36:44.202Z,100623.96
2019-01-25T20:41:49.596Z,100628.16
2019-01-25T20:46:54.935Z,100616.66
2019-01-25T20:52:00.453Z,100618.62
2019-01-25T20:57:05.781Z,100604.06
2019-01-25T21:02:11.128Z,100605.02
2019-01-25T21:07:16.470Z,100607.56
2019-01-25T21:12:21.913Z,100614.70
2019-01-25T21:17:27.204Z,100606.98
2019-01-25T21:22:32.591Z,100606.28
2019-01-25T21:27:37.924Z,100597.75
2019-01-25T21:32:43.222Z,100599.45
2019-01-25T21:37:48.505Z,100590.28
2019-01-25T21:42:53.849Z,100582.12
2019-01-25T21:47:59.224Z,100581.31
2019-01-25T21:53:04.564Z,100578.99
2019-01-25T21:58:09.940Z,100575.17
2019-01-25T22:03:15.269Z,100567.58
2019-01-25T22:08:20.666Z,100572.39
2019-01-25T22:13:26.104Z,100570.50
2019-01-25T22:18:31.501Z,100561.83
2019-01-25T22:23:36.850Z,100553.73
2019-01-25T22:28:42.141Z,100553.54
2019-01-25T22:33:47.495Z,100548.22
2019-01-25T22:38:52.810Z,100550.32
2019-01-25T22:43:58.186Z,100547.86
2019-01-25T22:49:03.561Z,100548.79
2019-01-25T22:54:08.901Z,100550.55
2019-01-25T22:59:14.429Z,100549.53
2019-01-25T23:05:07.675Z,100549.27
2019-01-25T23:10:21.371Z,100535.98
2019-01-25T23:15:26.775Z,100540.83
2019-01-25T23:20:32.126Z,100537.85
2019-01-25T23:25:37.504Z,100520.89
2019-01-25T23:30:42.802Z,100508.13
2019-01-25T23:35:48.140Z,100509.97
2019-01-25T23:40:53.543Z,100506.70
2019-01-25T23:45:58.829Z,100506.66
2019-01-25T23:51:04.161Z,100507.73
2019-01-25T23:56:09.468Z,100520.71
